ADDS METAR Data INFO
IDs: Format: Raw Decoded Include TAF

Data at: 0642 UTC 23 Feb 2018

KMIS 230635Z AUTO 13008KT 10SM CLR 25/20 A3030 RMK A01
KMIS 230615Z AUTO 13008KT 10SM CLR 25/20 A3030 RMK A01
KMIS 230555Z AUTO 13009KT 10SM CLR 25/20 A3031 RMK A01
KMIS 230535Z AUTO 13006KT 10SM CLR 26/20 A3031 RMK A01
KMIS 230515Z AUTO 13008G14KT 10SM FEW039 FEW046 24/20 A3032 RMK A01
KMIS 230455Z AUTO 13008G14KT 9SM FEW028 SCT046 25/20 A3032 RMK A01
KMIS 230435Z AUTO 13007G12KT 10SM CLR 26/20 A3033 RMK A01
KMIS 230415Z AUTO 13007KT 10SM CLR 26/20 A3033 RMK A01
KMIS 230355Z AUTO 13006G12KT 10SM CLR 26/20 A3033 RMK A01
KMIS 230335Z AUTO 13008G13KT 10SM CLR 25/20 A3033 RMK A01
KMIS 230315Z AUTO 13008G14KT 10SM CLR 25/20 A3032 RMK A01
KMIS 230255Z AUTO 13009KT 10SM CLR 25/20 A3032 RMK A01
KMIS 230235Z AUTO 13006G13KT 10SM FEW028 SCT040 SCT048 26/21 A3032 RMK A01
KMIS 230215Z AUTO 13009KT 10SM FEW029 SCT040 SCT047 25/21 A3032 RMK A01
KMIS 230155Z AUTO 13008KT 10SM SCT049 25/21 A3031 RMK A01
KMIS 230135Z AUTO 13008KT 10SM OVC050 26/21 A3031 RMK A01
KMIS 230115Z AUTO 13010G15KT 10SM FEW022 FEW041 OVC050 24/21 A3031 RMK A01
KMIS 230055Z AUTO 13010KT 10SM SCT022 SCT042 BKN050 25/21 A3030 RMK A01
KMIS 230035Z AUTO 13007KT 9SM BKN050 26/22 A3030 RMK A01
KMIS 230015Z AUTO 13008KT 9SM SCT050 26/22 A3029 RMK A01
KMIS 222355Z AUTO 13009KT 9SM CLR 25/21 A3029 RMK A01
KMIS 222335Z AUTO 13009G15KT 9SM CLR 24/22 A3029 RMK A01
KMIS 222315Z AUTO 12013KT 9SM CLR 24/21 A3028 RMK A01
KMIS 222255Z AUTO 13012KT 9SM CLR 24/21 A3028 RMK A01
KMIS 222235Z AUTO 13010KT 9SM CLR 24/21 A3028 RMK A01
KMIS 222215Z AUTO 13009KT 9SM CLR 26/21 A3028 RMK A01
KMIS 222155Z AUTO 13006G13KT 8SM FEW026 FEW037 SCT045 27/22 A3028 RMK A01
KMIS 222135Z AUTO 13007G12KT 9SM SCT021 BKN026 BKN045 27/22 A3028 RMK A01
KMIS 222115Z AUTO 13006G14KT 8SM SCT020 SCT027 26/22 A3028 RMK A01
KMIS 222055Z AUTO 13008KT 8SM CLR 27/22 A3028 RMK A01
KMIS 222035Z AUTO 5.20833305KT 9SM CLR 28/22 A3029 RMK A01
KMIS 222015Z AUTO VRB05G11KT 8SM FEW021 27/22 A3029 RMK A01
KMIS 221955Z AUTO 13006G14KT 7SM FEW023 FEW029 25/22 A3029 RMK A01
KMIS 221935Z AUTO 13008KT 8SM FEW024 FEW029 25/22 A3030 RMK A01
KMIS 221915Z AUTO 14005KT 8SM CLR 25/22 A3031 RMK A01
KMIS 221855Z AUTO VRB05KT 8SM CLR 25/22 A3031 RMK A01
KMIS 221835Z AUTO 14007KT 8SM CLR 25/22 A3032 RMK A01
KMIS 221815Z AUTO 14007KT 8SM CLR 25/22 A3033 RMK A01
KMIS 221755Z AUTO 14007KT 7SM CLR 25/22 A3033 RMK A01
KMIS 221735Z AUTO 14007KT 8SM CLR 25/22 A3034 RMK A01
KMIS 221715Z AUTO 13008KT 8SM CLR 25/20 A3034 RMK A01
KMIS 221655Z AUTO 00000KT 8SM CLR 25/20 A3034 RMK A01
KMIS 221635Z AUTO VRB03KT 9SM CLR 24/20 A3034 RMK A01
KMIS 221615Z AUTO VRB05G11KT 8SM CLR 25/20 A3034 RMK A01
KMIS 221555Z AUTO 17007KT 150V210 9SM CLR 25/21 A3034 RMK A01
KMIS 221535Z AUTO VRB04KT 8SM CLR 24/20 A3034 RMK A01
KMIS 221515Z AUTO VRB05G10KT 9SM CLR 24/20 A3034 RMK A01
KMIS 221455Z AUTO 17007KT 9SM CLR 24/20 A3034 RMK A01
KMIS 221435Z AUTO VRB03G10KT 9SM CLR 24/20 A3034 RMK A01
KMIS 221415Z AUTO 00000KT 8SM CLR 24/21 A3034 RMK A01
KMIS 221355Z AUTO 00000KT 9SM CLR 24/21 A3033 RMK A01
KMIS 221335Z AUTO VRB03KT 9SM FEW031 FEW037 24/21 A3033 RMK A01
KMIS 221315Z AUTO 00000G10KT 8SM CLR 24/21 A3032 RMK A01
KMIS 221255Z AUTO VRB05G11KT 8SM CLR 23/21 A3032 RMK A01
KMIS 221235Z AUTO VRB04G10KT 8SM CLR 23/21 A3031 RMK A01
KMIS 221215Z AUTO VRB04KT 9SM CLR 23/20 A3031 RMK A01
KMIS 221155Z AUTO VRB04KT 10SM CLR 23/20 A3030 RMK A01
KMIS 221135Z AUTO 17006KT 9SM CLR 23/20 A3029 RMK A01
KMIS 221115Z AUTO 17007KT 9SM CLR 23/20 A3028 RMK A01
KMIS 221055Z AUTO 17006G12KT 9SM FEW033 23/20 A3028 RMK A01
KMIS 221035Z AUTO 17007KT 9SM FEW035 23/20 A3028 RMK A01
KMIS 221015Z AUTO 17006KT 8SM CLR 23/20 A3028 RMK A01
KMIS 220955Z AUTO 17007KT 8SM CLR 23/20 A3027 RMK A01
KMIS 220935Z AUTO 17007G12KT CLR 23/20 A3027 RMK A01
KMIS 220915Z AUTO 17008KT 150V210 8SM CLR 23/20 A3027 RMK A01
KMIS 220855Z AUTO 17007KT 7SM CLR 23/20 A3027 RMK A01
KMIS 220835Z AUTO VRB06KT 8SM CLR 23/21 A3027 RMK A01
KMIS 220815Z AUTO 17008KT 8SM CLR 23/20 A3027 RMK A01
KMIS 220755Z AUTO 17008KT 7SM CLR 23/21 A3028 RMK A01
KMIS 220735Z AUTO 17008G14KT 7SM CLR 23/21 A3028 RMK A01
KMIS 220715Z AUTO 18008G14KT 150V210 8SM CLR 24/21 A3028 RMK A01
KMIS 220655Z AUTO 17010G15KT 8SM CLR 24/21 A3028 RMK A01
KMIS 220635Z AUTO 17008G14KT 8SM CLR 24/21 A3029 RMK A01
KMIS 220615Z AUTO 18007G13KT 7SM CLR 23/21 A3029 RMK A01
KMIS 220555Z AUTO 18009G14KT 7SM FEW019 FEW032 24/21 A3029 RMK A01
KMIS 220535Z AUTO 18008KT 7SM CLR 23/21 A3029 RMK A01
KMIS 220515Z AUTO 17008KT 7SM CLR 23/21 A3029 RMK A01
KMIS 220455Z AUTO 17008KT 7SM CLR 23/21 A3029 RMK A01
KMIS 220435Z AUTO 17008G14KT 7SM CLR 24/21 A3029 RMK A01
KMIS 220415Z AUTO 17007KT 7SM CLR 23/21 A3028 RMK A01
KMIS 220355Z AUTO 17007KT 6SM BR FEW018 FEW023 SCT034 24/21 A3028 RMK A01
KMIS 220035Z AUTO 18009KT 6SM BR FEW019 FEW027 24/22 A3025 RMK A01
KMIS 220015Z AUTO 17005KT 6SM HZ SCT020 SCT025 24/22 A3024 RMK A01
KMIS 212355Z AUTO 18006KT 4SM HZ SCT021 SCT032 24/22 A3023 RMK A01
KMIS 212335Z AUTO 18007KT 4SM HZ FEW021 SCT032 BKN050 24/22 A3023 RMK A01
KMIS 212315Z AUTO 18007KT 5SM HZ SCT021 BKN028 BKN033 24/22 A3023 RMK A01
KMIS 212255Z AUTO 18007KT 5SM HZ SCT022 SCT029 SCT041 24/22 A3023 RMK A01
KMIS 212235Z AUTO 18006KT 5SM HZ FEW020 SCT026 SCT031 25/22 A3022 RMK A01
KMIS 212215Z AUTO 18006KT 5SM HZ FEW023 SCT028 25/22 A3022 RMK A01
KMIS 212155Z AUTO 18006KT 5SM HZ SCT022 SCT027 25/22 A3022 RMK A01
KMIS 212135Z AUTO 18006KT 5SM HZ BKN022 25/22 A3022 RMK A01
KMIS 212115Z AUTO 18008KT 5SM HZ SCT021 25/22 A3022 RMK A01
KMIS 212055Z AUTO 18008KT 5SM HZ FEW019 25/22 A3022 RMK A01
KMIS 212035Z AUTO 18007KT 5SM HZ CLR 25/22 A3022 RMK A01
KMIS 212015Z AUTO 18006KT 6SM HZ FEW023 25/22 A3022 RMK A01
KMIS 211955Z AUTO 18006KT 5SM HZ FEW023 FEW029 FEW037 25/22 A3023 RMK A01
KMIS 211935Z AUTO 18006KT 5SM HZ CLR 25/22 A3023 RMK A01
KMIS 211915Z AUTO 18006KT 5SM HZ FEW020 FEW028 25/22 A3024 RMK A01
KMIS 211855Z AUTO 18006KT 5SM HZ FEW019 25/22 A3025 RMK A01